Boulevard, California
Current Conditions -  °F | °C
As of 9:56 PM on Friday 24 Oct 2014 (Local Time) from KNJK Reporting Station
Clear Clear  
Wind Chill: 76°   Ceiling: Unl
Heat Index: 76°   Visibility: 10mi
Dew Point: 45°   Wind: 3mph
Humidity: 33%   Direction: 30°NNE
Pressure: 29.9"   Gusts: NA
Location:  32.66°N, 116.28°W
Report Text: KNJK 250456Z AUTO 03003KT 10SM CLR 24/07 A2990 RMK AO2 SLP142 T02440072
Loading
Personal Weather Stations






























Interactive Weather Map
Tropical Storm Tracking
New forecast layout! Learn more

10-Day Weather Forecast

Advertisements
Track Severe Weather on mobile